Terminal Aerodrome Forecast
Issued by NWS New Orleans/Baton Rouge, LA

Home | Current Version | Previous Version | Text Only | Print | Product List | Glossary On
Versions: 1 2 3 4 5 6 7 8 9 10 11 12 13 14 15 16 17 18 19 20
000
FTUS44 KLIX 280908 AAA
TAFNEW
TAF AMD
KNEW 280908Z 2809/2906 19008KT P6SM SCT016 BKN035
      TEMPO 2809/2813 BKN016
     FM281600 20007KT P6SM BKN020
     FM281700 20006KT P6SM BKN040=

USA.gov is the U.S. government's official web portal to all federal, state and local government web resources and services.